Time;durP1;ratioP1;P1;durP2;ratioP2;P2;SDS_P1;SDS_P2;PMS_P1;PMS_P2;Temp;Humidity;BMP_temperature;BMP_pressure;BME280_temperature;BME280_humidity;BME280_pressure;Samples;Min_cycle;Max_cycle;Signal;HPM_P1;HPM_P2
2021/07/19 00:01:34;;;;;;;;;;;;;;;23.47;62.81;99215.78;5115688;28;19977;-70
2021/07/19 00:04:03;;;;;;;;;;;;;;;23.44;62.89;99213.38;5114842;28;19931;-70
2021/07/19 00:06:32;;;;;;;;;;;;;;;23.42;62.84;99217.00;5115644;28;19977;-68
2021/07/19 00:09:00;;;;;;;;;;;;;;;23.40;62.93;99217.09;5116241;28;19924;-71
2021/07/19 00:11:31;;;;;;;;;;;;;;;23.39;62.96;99220.63;5116114;28;20023;-70
2021/07/19 00:13:59;;;;;;;;;;;;;;;23.40;62.96;99222.28;5115537;28;19968;-68
2021/07/19 00:16:28;;;;;;;;;;;;;;;23.39;62.89;99223.25;5116069;28;19951;-69
2021/07/19 00:18:57;;;;;;;;;;;;;;;23.36;62.84;99220.81;5115403;28;19927;-69
2021/07/19 00:21:25;;;;;;;;;;;;;;;23.34;62.85;99222.66;5115188;28;20385;-71
2021/07/19 00:23:54;;;;;;;;;;;;;;;23.33;62.89;99221.81;5115975;28;19931;-68
2021/07/19 00:26:23;;;;;;;;;;;;;;;23.33;62.74;99213.16;5115425;28;19931;-69
2021/07/19 00:28:54;;;;;;;;;;;;;;;23.32;62.67;99214.09;5115953;28;20312;-71
2021/07/19 00:31:24;;;;;;;;;;;;;;;23.33;62.60;99215.75;5115265;28;20448;-68
2021/07/19 00:33:59;;;;;;;;;;;;;;;23.34;62.71;99217.44;5115177;28;19970;-71
2021/07/19 00:36:27;;;;;;;;;;;;;;;23.35;62.44;99208.72;5115023;28;20377;-70
2021/07/19 00:38:58;;;;;;;;;;;;;;;23.35;62.38;99213.91;5096931;28;19930;-69
2021/07/19 00:41:27;;;;;;;;;;;;;;;23.32;62.39;99209.69;5115626;28;20408;-69
2021/07/19 00:43:58;;;;;;;;;;;;;;;23.34;62.36;99207.00;5096845;28;19924;-71
2021/07/19 00:46:26;;;;;;;;;;;;;;;23.36;62.23;99210.41;5097168;28;19930;-69
2021/07/19 00:48:55;;;;;;;;;;;;;;;23.36;62.28;99209.53;5114766;28;19931;-69
2021/07/19 00:51:25;;;;;;;;;;;;;;;23.36;62.16;99210.41;5114834;28;20328;-69
2021/07/19 00:53:55;;;;;;;;;;;;;;;23.37;62.02;99212.06;5097069;28;19927;-68
2021/07/19 00:56:25;;;;;;;;;;;;;;;23.37;62.05;99212.06;5114760;28;19924;-69
2021/07/19 00:58:55;;;;;;;;;;;;;;;23.38;61.88;99208.53;5115047;28;19923;-70
2021/07/19 01:01:26;;;;;;;;;;;;;;;23.36;62.00;99205.19;5096572;28;19924;-67
2021/07/19 01:03:57;;;;;;;;;;;;;;;23.31;62.04;99208.03;5115085;28;19924;-68
2021/07/19 01:06:29;;;;;;;;;;;;;;;23.30;62.22;99208.09;5096445;28;19923;-68
2021/07/19 01:08:59;;;;;;;;;;;;;;;23.29;62.28;99198.63;5115313;28;19980;-71
2021/07/19 01:11:29;;;;;;;;;;;;;;;23.27;62.30;99205.72;5114639;28;20409;-71
2021/07/19 01:13:58;;;;;;;;;;;;;;;23.26;62.29;99202.25;5096496;28;20335;-68
2021/07/19 01:16:30;;;;;;;;;;;;;;;23.26;62.46;99206.63;5096217;28;20374;-69
2021/07/19 01:18:59;;;;;;;;;;;;;;;23.28;62.52;99203.00;5096404;28;19928;-71
2021/07/19 01:21:40;;;;;;;;;;;;;;;23.28;62.41;99203.00;5114333;28;20266;-71
2021/07/19 01:24:13;;;;;;;;;;;;;;;23.29;62.43;99214.25;5114411;28;20026;-71
2021/07/19 01:26:48;;;;;;;;;;;;;;;23.28;62.43;99207.38;5096631;28;20022;-68
2021/07/19 01:29:20;;;;;;;;;;;;;;;23.25;62.49;99197.97;5096293;28;19930;-69
2021/07/19 01:31:52;;;;;;;;;;;;;;;23.24;62.63;99208.50;5114399;28;19977;-68
2021/07/19 01:34:23;;;;;;;;;;;;;;;23.23;62.55;99204.19;5096283;28;19930;-70
2021/07/19 01:36:54;;;;;;;;;;;;;;;23.22;62.66;99202.53;5114745;28;19949;-69
2021/07/19 01:39:43;;;;;;;;;;;;;;;23.19;62.71;99200.97;5103474;28;19931;-71
2021/07/19 01:42:12;;;;;;;;;;;;;;;23.19;62.87;99203.56;5096221;28;19924;-70
2021/07/19 01:44:43;;;;;;;;;;;;;;;23.19;62.91;99207.94;5096013;28;20014;-68
2021/07/19 01:47:14;;;;;;;;;;;;;;;23.20;62.81;99207.00;5096457;28;19955;-69
2021/07/19 01:49:49;;;;;;;;;;;;;;;23.20;62.82;99207.00;5096136;28;19924;-71
2021/07/19 01:52:18;;;;;;;;;;;;;;;23.17;62.93;99202.81;5096443;28;19927;-70
2021/07/19 01:54:48;;;;;;;;;;;;;;;23.18;63.00;99208.84;5114850;28;19923;-71
2021/07/19 01:57:18;;;;;;;;;;;;;;;23.20;62.97;99207.00;5114412;28;19930;-69
2021/07/19 01:59:54;;;;;;;;;;;;;;;23.18;63.09;99201.88;5096324;28;20373;-68
2021/07/19 02:02:43;;;;;;;;;;;;;;;23.19;63.01;99207.94;5114206;28;19927;-69
2021/07/19 02:05:21;;;;;;;;;;;;;;;23.19;62.99;99200.97;5096377;28;20022;-69
2021/07/19 02:07:57;;;;;;;;;;;;;;;23.17;63.02;99199.38;5114327;28;19973;-69
2021/07/19 02:10:28;;;;;;;;;;;;;;;23.11;63.15;99199.72;5114018;28;19931;-70
2021/07/19 02:13:01;;;;;;;;;;;;;;;23.09;63.23;99201.59;5114399;28;19930;-71
2021/07/19 02:15:38;;;;;;;;;;;;;;;23.08;63.27;99199.94;5114025;28;19977;-71
2021/07/19 02:18:09;;;;;;;;;;;;;;;23.06;63.31;99201.78;5113997;28;19924;-71
2021/07/19 02:20:44;;;;;;;;;;;;;;;23.04;63.36;99203.63;5092255;28;19924;-71
2021/07/19 02:23:18;;;;;;;;;;;;;;;23.00;63.76;99196.94;5092353;28;19924;-70
2021/07/19 02:25:59;;;;;;;;;;;;;;;23.00;63.65;99204.72;5092282;28;19928;-68
2021/07/19 02:28:30;;;;;;;;;;;;;;;22.97;63.55;99197.94;5095439;28;20043;-71
2021/07/19 02:31:02;;;;;;;;;;;;;;;22.96;63.66;99201.47;5097199;28;19924;-69
2021/07/19 02:33:32;;;;;;;;;;;;;;;22.96;63.66;99200.66;5097145;28;19931;-69
2021/07/19 02:36:00;;;;;;;;;;;;;;;22.95;63.65;99198.97;5097396;28;19980;-68
2021/07/19 02:38:35;;;;;;;;;;;;;;;22.94;63.62;99198.13;5095889;28;19924;-70
2021/07/19 02:41:19;;;;;;;;;;;;;;;22.94;63.76;99197.31;5096145;28;19925;-71
2021/07/19 02:43:50;;;;;;;;;;;;;;;22.88;63.87;99193.28;5095765;28;19925;-70
2021/07/19 02:46:24;;;;;;;;;;;;;;;22.84;64.08;99180.53;5095737;28;19924;-71
2021/07/19 02:48:54;;;;;;;;;;;;;;;22.83;64.06;99169.28;5097197;28;19924;-68
2021/07/19 02:51:24;;;;;;;;;;;;;;;22.80;64.05;99184.22;5097190;28;20370;-70
2021/07/19 02:53:55;;;;;;;;;;;;;;;22.77;64.11;99184.44;5096979;28;19930;-69
2021/07/19 02:56:26;;;;;;;;;;;;;;;22.76;64.27;99193.16;5095528;28;19974;-71
2021/07/19 02:58:55;;;;;;;;;;;;;;;22.73;64.15;99194.16;5096668;28;19924;-71
2021/07/19 03:01:25;;;;;;;;;;;;;;;22.72;64.35;99196.88;5095401;28;19970;-68
2021/07/19 03:03:58;;;;;;;;;;;;;;;22.74;64.30;99202.81;5095680;28;19977;-68
2021/07/19 03:06:35;;;;;;;;;;;;;;;22.74;64.20;99200.22;5096786;28;19928;-68
2021/07/19 03:09:10;;;;;;;;;;;;;;;22.71;64.28;99198.63;5096703;28;20413;-68
2021/07/19 03:11:41;;;;;;;;;;;;;;;22.72;64.25;99192.50;5097079;28;19928;-70
2021/07/19 03:14:17;;;;;;;;;;;;;;;22.74;64.35;99197.63;5095281;28;19985;-68
2021/07/19 03:16:50;;;;;;;;;;;;;;;22.72;64.20;99202.06;5095482;28;20340;-68
2021/07/19 03:19:20;;;;;;;;;;;;;;;22.71;64.23;99205.59;5096272;28;20267;-70
2021/07/19 03:21:52;;;;;;;;;;;;;;;22.68;64.41;99197.03;5096214;28;19924;-69
2021/07/19 03:24:33;;;;;;;;;;;;;;;22.70;64.33;99198.72;5095033;28;19924;-71
2021/07/19 03:27:04;;;;;;;;;;;;;;;22.70;64.44;99199.53;5094931;28;19931;-69
2021/07/19 03:29:34;;;;;;;;;;;;;;;22.67;64.43;99200.56;5096391;28;19924;-68
2021/07/19 03:32:30;;;;;;;;;;;;;;;22.69;64.41;99200.47;5090187;28;19928;-69
2021/07/19 03:35:07;;;;;;;;;;;;;;;22.70;64.55;99198.72;5094802;28;19966;-69
2021/07/19 03:37:39;;;;;;;;;;;;;;;22.70;64.45;99196.94;5095933;28;19931;-70
2021/07/19 03:40:11;;;;;;;;;;;;;;;22.70;64.50;99198.72;5095026;28;19924;-68
2021/07/19 03:42:43;;;;;;;;;;;;;;;22.73;64.49;99190.72;5094712;28;19924;-68
2021/07/19 03:45:12;;;;;;;;;;;;;;;22.76;64.40;99194.00;5094510;28;20393;-70
2021/07/19 03:47:44;;;;;;;;;;;;;;;22.76;64.52;99193.16;5095506;28;20306;-68
2021/07/19 03:50:13;;;;;;;;;;;;;;;22.78;64.30;99189.53;5094483;28;19924;-69
2021/07/19 03:52:46;;;;;;;;;;;;;;;22.80;64.31;99184.22;5094439;28;19963;-68
2021/07/19 03:55:23;;;;;;;;;;;;;;;22.84;64.24;99191.78;5094230;28;19924;-69
2021/07/19 03:57:53;;;;;;;;;;;;;;;22.87;64.23;99190.75;5095480;28;20403;-71
2021/07/19 04:00:30;;;;;;;;;;;;;;;22.86;64.25;99194.31;5094658;28;19924;-70
2021/07/19 04:03:16;;;;;;;;;;;;;;;22.87;64.33;99190.75;5095435;28;19927;-69
2021/07/19 04:05:49;;;;;;;;;;;;;;;22.92;64.23;99186.13;5094221;28;19977;-71
2021/07/19 04:08:23;;;;;;;;;;;;;;;22.97;64.03;99197.09;5094419;28;19924;-70
2021/07/19 04:10:53;;;;;;;;;;;;;;;23.01;64.01;99196.00;5095238;28;19924;-68
2021/07/19 04:13:24;;;;;;;;;;;;;;;23.07;63.90;99196.47;5095244;28;19975;-68
2021/07/19 04:15:53;;;;;;;;;;;;;;;23.09;63.76;99198.97;5095143;28;20041;-68
2021/07/19 04:18:25;;;;;;;;;;;;;;;23.10;63.81;99196.31;5093977;28;19924;-70
2021/07/19 04:20:55;;;;;;;;;;;;;;;23.18;63.75;99203.63;5108307;28;19949;-68
2021/07/19 04:23:30;;;;;;;;;;;;;;;23.22;63.49;99219.00;5115406;28;19924;-68
2021/07/19 04:26:16;;;;;;;;;;;;;;;23.26;63.66;99204.03;5115391;28;19973;-70
2021/07/19 04:28:54;;;;;;;;;;;;;;;23.31;63.47;99204.59;5097081;28;19923;-68
2021/07/19 04:31:24;;;;;;;;;;;;;;;23.37;63.46;99206.84;5115548;28;20284;-69
2021/07/19 04:34:01;;;;;;;;;;;;;;;23.42;63.37;99198.78;5097024;28;20289;-68
2021/07/19 04:36:41;;;;;;;;;;;;;;;23.48;63.22;99201.84;5115533;28;20385;-70
2021/07/19 04:39:12;;;;;;;;;;;;;;;23.56;63.04;99207.44;5115146;28;19931;-68
2021/07/19 04:41:44;;;;;;;;;;;;;;;23.62;62.71;99207.03;5096909;28;19924;-71
2021/07/19 04:44:12;;;;;;;;;;;;;;;23.72;62.62;99213.38;5114976;28;19923;-69
2021/07/19 04:46:41;;;;;;;;;;;;;;;23.84;62.34;99223.03;5096792;28;19952;-70
2021/07/19 04:49:11;;;;;;;;;;;;;;;23.91;62.04;99224.31;5115198;28;19924;-68
2021/07/19 04:51:40;;;;;;;;;;;;;;;23.96;61.67;99214.44;5115121;28;20030;-70
2021/07/19 04:54:10;;;;;;;;;;;;;;;24.02;61.75;99220.22;5114840;28;19969;-70
2021/07/19 04:56:40;;;;;;;;;;;;;;;24.12;61.77;99219.56;5114839;28;20381;-70
2021/07/19 04:59:09;;;;;;;;;;;;;;;24.19;61.72;99220.00;5114725;28;19923;-69
2021/07/19 05:01:39;;;;;;;;;;;;;;;24.29;61.11;99228.91;5115283;28;19930;-71
2021/07/19 05:04:09;;;;;;;;;;;;;;;24.34;60.84;99224.25;5114729;28;20026;-69
2021/07/19 05:06:41;;;;;;;;;;;;;;;24.43;61.12;99228.84;5114905;28;20330;-70
2021/07/19 05:09:12;;;;;;;;;;;;;;;24.49;60.77;99236.31;5114562;28;20423;-71
2021/07/19 05:11:42;;;;;;;;;;;;;;;24.42;60.61;99235.03;5114501;28;19971;-69
2021/07/19 05:14:13;;;;;;;;;;;;;;;24.28;60.81;99232.47;5114633;28;19947;-69
2021/07/19 05:16:42;;;;;;;;;;;;;;;24.19;61.13;99244.31;5114635;28;20022;-71
2021/07/19 05:19:11;;;;;;;;;;;;;;;24.25;60.98;99238.72;5114410;28;20014;-69
2021/07/19 05:21:41;;;;;;;;;;;;;;;24.39;61.13;99241.28;5114270;28;20325;-71
2021/07/19 05:24:10;;;;;;;;;;;;;;;24.50;60.55;99238.81;5114857;28;19924;-71
2021/07/19 05:26:39;;;;;;;;;;;;;;;24.62;60.27;99238.00;5114424;28;19931;-71
2021/07/19 05:29:08;;;;;;;;;;;;;;;24.78;60.27;99237.91;5114280;28;20289;-69
2021/07/19 05:31:38;;;;;;;;;;;;;;;24.83;59.92;99242.81;5114349;28;19924;-70
2021/07/19 05:34:07;;;;;;;;;;;;;;;24.91;59.72;99236.13;5114333;28;19924;-69
2021/07/19 05:36:36;;;;;;;;;;;;;;;25.00;59.50;99232.91;5114629;28;20014;-71
2021/07/19 05:39:06;;;;;;;;;;;;;;;24.96;59.49;99241.88;5114201;28;19978;-69
2021/07/19 05:41:35;;;;;;;;;;;;;;;24.86;59.68;99245.22;5114294;28;19924;-70
2021/07/19 05:44:04;;;;;;;;;;;;;;;24.76;59.95;99247.56;5114241;28;19966;-70
2021/07/19 05:46:34;;;;;;;;;;;;;;;24.78;59.80;99248.34;5114490;28;19954;-69
2021/07/19 05:49:02;;;;;;;;;;;;;;;24.72;60.19;99253.06;5114357;28;20284;-69
2021/07/19 05:51:32;;;;;;;;;;;;;;;24.64;59.95;99256.22;5114259;28;20385;-71
2021/07/19 05:54:03;;;;;;;;;;;;;;;24.69;59.38;99254.09;5114426;28;20022;-71
2021/07/19 05:56:34;;;;;;;;;;;;;;;24.79;59.68;99252.59;5096094;28;20282;-68
2021/07/19 05:59:03;;;;;;;;;;;;;;;24.92;59.36;99256.09;5114521;28;19930;-71
2021/07/19 06:01:32;;;;;;;;;;;;;;;25.04;59.38;99249.22;5114118;28;20022;-68
2021/07/19 06:04:01;;;;;;;;;;;;;;;25.08;59.18;99241.06;5117730;28;19928;-68
2021/07/19 06:06:31;;;;;;;;;;;;;;;25.08;58.90;99237.63;5118358;28;19978;-70
2021/07/19 06:09:00;;;;;;;;;;;;;;;25.15;59.13;99244.94;5117868;28;20016;-70
2021/07/19 06:11:29;;;;;;;;;;;;;;;25.31;58.43;99242.97;5118189;28;20367;-68
2021/07/19 06:13:59;;;;;;;;;;;;;;;25.49;58.28;99240.06;5117880;28;19930;-70
2021/07/19 06:16:28;;;;;;;;;;;;;;;25.60;57.76;99248.03;5117817;28;20010;-69
2021/07/19 06:18:56;;;;;;;;;;;;;;;25.69;57.35;99244.78;5118143;28;19969;-71
2021/07/19 06:21:25;;;;;;;;;;;;;;;25.77;57.12;99255.53;5117518;28;19924;-71
2021/07/19 06:23:53;;;;;;;;;;;;;;;25.90;56.74;99251.97;5118028;28;19927;-69
2021/07/19 06:26:23;;;;;;;;;;;;;;;25.99;56.55;99260.94;5117721;28;19931;-69
2021/07/19 06:28:51;;;;;;;;;;;;;;;26.00;55.91;99267.84;5099254;28;19924;-69
2021/07/19 06:31:21;;;;;;;;;;;;;;;25.98;55.88;99272.34;5117565;28;19962;-70
2021/07/19 06:33:50;;;;;;;;;;;;;;;26.04;55.37;99273.69;5117773;28;19944;-71
2021/07/19 06:36:19;;;;;;;;;;;;;;;26.16;55.19;99284.16;5117464;28;19923;-70
2021/07/19 06:38:47;;;;;;;;;;;;;;;26.29;54.77;99282.34;5117336;28;19947;-70
2021/07/19 06:41:16;;;;;;;;;;;;;;;26.36;53.99;99280.97;5117347;28;20366;-72
2021/07/19 06:43:45;;;;;;;;;;;;;;;26.41;53.62;99286.72;5117361;28;19924;-67
2021/07/19 06:46:13;;;;;;;;;;;;;;;26.41;53.45;99286.72;5117210;28;19934;-71
2021/07/19 06:48:44;;;;;;;;;;;;;;;26.49;53.16;99286.97;5117082;28;19923;-69
2021/07/19 06:51:12;;;;;;;;;;;;;;;26.45;52.72;99285.53;5117477;28;19924;-70
2021/07/19 06:53:41;;;;;;;;;;;;;;;26.51;52.46;99300.78;5117114;28;19923;-71
2021/07/19 06:56:10;;;;;;;;;;;;;;;26.61;52.31;99295.72;5117288;28;19923;-69
2021/07/19 06:58:38;;;;;;;;;;;;;;;26.73;51.93;99300.06;5117005;28;19923;-70
2021/07/19 07:01:07;;;;;;;;;;;;;;;26.83;51.81;99302.88;5116972;28;19993;-68
2021/07/19 07:03:36;;;;;;;;;;;;;;;26.91;50.91;99297.94;5116755;28;19923;-69
2021/07/19 07:06:27;;;;;;;;;;;;;;;26.94;50.47;99302.94;5098702;28;19931;-69
2021/07/19 07:08:58;;;;;;;;;;;;;;;26.81;51.27;99305.63;5116750;28;19923;-68
2021/07/19 07:11:27;;;;;;;;;;;;;;;26.85;51.57;99298.41;5116803;28;19924;-69
2021/07/19 07:13:57;;;;;;;;;;;;;;;26.91;52.40;99308.41;5116426;28;20018;-70
2021/07/19 07:16:26;;;;;;;;;;;;;;;26.92;51.36;99304.84;5116503;28;19927;-69
2021/07/19 07:18:55;;;;;;;;;;;;;;;27.02;51.42;99308.44;5116408;28;20369;-71
2021/07/19 07:21:24;;;;;;;;;;;;;;;27.13;51.49;99306.72;5116119;28;19961;-70
2021/07/19 07:23:55;;;;;;;;;;;;;;;26.86;51.21;99300.88;5116394;28;19924;-70
2021/07/19 07:26:26;;;;;;;;;;;;;;;26.67;51.28;99305.75;5116373;28;19930;-69
2021/07/19 07:28:59;;;;;;;;;;;;;;;26.43;51.73;99313.59;5116385;28;19924;-71
2021/07/19 07:31:30;;;;;;;;;;;;;;;26.34;52.38;99324.75;5116368;28;19967;-71
2021/07/19 07:34:00;;;;;;;;;;;;;;;26.24;52.77;99321.09;5116397;28;19978;-71
2021/07/19 07:36:30;;;;;;;;;;;;;;;26.24;52.50;99336.78;5116010;28;19924;-69
2021/07/19 07:39:01;;;;;;;;;;;;;;;26.18;52.64;99329.34;5116449;28;19973;-70
2021/07/19 07:41:30;;;;;;;;;;;;;;;26.03;52.10;99325.19;5116026;28;19927;-71
2021/07/19 07:43:58;;;;;;;;;;;;;;;26.21;52.11;99338.78;5116024;28;19924;-70
2021/07/19 07:46:28;;;;;;;;;;;;;;;26.43;50.88;99334.56;5115996;28;19930;-69
2021/07/19 07:48:56;;;;;;;;;;;;;;;26.43;50.83;99334.56;5115827;28;19970;-70
2021/07/19 07:51:25;;;;;;;;;;;;;;;26.40;50.83;99331.28;5115868;28;19966;-70
2021/07/19 07:53:54;;;;;;;;;;;;;;;26.33;50.59;99338.75;5115950;28;19924;-70
2021/07/19 07:56:24;;;;;;;;;;;;;;;26.29;51.20;99339.94;5115771;28;19923;-70
2021/07/19 07:58:52;;;;;;;;;;;;;;;26.16;50.89;99341.72;5115927;28;19930;-70
2021/07/19 08:01:21;;;;;;;;;;;;;;;26.07;51.21;99336.25;5115755;28;19985;-70
2021/07/19 08:03:50;;;;;;;;;;;;;;;25.95;51.55;99328.34;5115679;28;19930;-69
2021/07/19 08:06:20;;;;;;;;;;;;;;;25.88;51.67;99326.25;5115691;28;19924;-67
2021/07/19 08:08:48;;;;;;;;;;;;;;;25.93;51.77;99326.75;5115844;28;19977;-71
2021/07/19 08:11:17;;;;;;;;;;;;;;;25.89;51.86;99330.53;5115802;28;19969;-70
2021/07/19 08:13:47;;;;;;;;;;;;;;;25.82;51.93;99321.41;5115462;28;19931;-70
2021/07/19 08:16:16;;;;;;;;;;;;;;;25.83;52.30;99328.34;5115946;28;19928;-70
2021/07/19 08:18:44;;;;;;;;;;;;;;;25.96;52.82;99329.19;5115692;28;20285;-70
2021/07/19 08:21:13;;;;;;;;;;;;;;;26.03;52.73;99335.66;5115181;28;19924;-70
2021/07/19 08:23:41;;;;;;;;;;;;;;;26.03;52.14;99335.66;5115724;28;20014;-70
2021/07/19 08:26:11;;;;;;;;;;;;;;;26.03;52.18;99335.66;5114544;28;20384;-70
2021/07/19 08:28:40;;;;;;;;;;;;;;;26.06;52.25;99330.19;5115346;28;19924;-70
2021/07/19 08:31:10;;;;;;;;;;;;;;;26.11;52.36;99333.34;5115245;28;19924;-71
2021/07/19 08:33:39;;;;;;;;;;;;;;;26.20;52.15;99337.94;5114884;28;20054;-71
2021/07/19 08:36:07;;;;;;;;;;;;;;;26.17;51.99;99337.31;5114915;28;19951;-70
2021/07/19 08:38:36;;;;;;;;;;;;;;;26.24;51.57;99328.94;5114979;28;19980;-70
2021/07/19 08:41:04;;;;;;;;;;;;;;;26.26;51.04;99340.13;5115197;28;19959;-70
2021/07/19 08:43:39;;;;;;;;;;;;;;;26.39;50.74;99338.34;5114758;28;19924;-70
2021/07/19 08:46:10;;;;;;;;;;;;;;;26.41;50.25;99339.06;5114807;28;20007;-70
2021/07/19 08:48:40;;;;;;;;;;;;;;;26.46;49.91;99333.50;5096429;28;20391;-72
2021/07/19 08:51:09;;;;;;;;;;;;;;;26.49;49.68;99336.72;5114702;28;19924;-69
2021/07/19 08:53:38;;;;;;;;;;;;;;;26.74;49.81;99337.56;5114610;28;19923;-71
2021/07/19 08:56:08;;;;;;;;;;;;;;;27.08;49.49;99336.81;5114970;28;19934;-71
2021/07/19 08:58:37;;;;;;;;;;;;;;;27.36;48.88;99335.59;5079777;28;20274;-71
2021/07/19 09:01:05;;;;;;;;;;;;;;;27.60;48.32;99342.50;5114972;28;19959;-70
2021/07/19 09:03:36;;;;;;;;;;;;;;;27.74;47.72;99347.50;5114747;28;20038;-71
2021/07/19 09:06:05;;;;;;;;;;;;;;;27.79;46.25;99334.88;5114729;28;19928;-69
2021/07/19 09:08:33;;;;;;;;;;;;;;;27.69;46.59;99333.09;5114927;28;19924;-71
2021/07/19 09:11:09;;;;;;;;;;;;;;;27.65;47.13;99331.66;5114605;28;19969;-70
2021/07/19 09:13:38;;;;;;;;;;;;;;;27.90;47.34;99319.16;5114937;28;19924;-70
2021/07/19 09:16:06;;;;;;;;;;;;;;;28.14;46.62;99318.22;5096545;28;20281;-72
2021/07/19 09:18:37;;;;;;;;;;;;;;;28.22;46.25;99318.47;5114484;28;19924;-72
2021/07/19 09:21:06;;;;;;;;;;;;;;;28.37;46.34;99314.63;5114217;28;20015;-72
2021/07/19 09:23:34;;;;;;;;;;;;;;;28.53;46.03;99318.53;5114473;28;19931;-70
2021/07/19 09:26:10;;;;;;;;;;;;;;;28.56;45.43;99309.56;5114358;28;19924;-71
2021/07/19 09:28:38;;;;;;;;;;;;;;;28.66;44.85;99305.28;5114406;28;19924;-72
2021/07/19 09:31:07;;;;;;;;;;;;;;;28.73;45.17;99301.19;5096469;28;19924;-72
2021/07/19 09:33:42;;;;;;;;;;;;;;;28.85;44.88;99300.19;5093926;28;19924;-71
2021/07/19 09:36:11;;;;;;;;;;;;;;;29.00;44.45;99298.94;5094608;28;20022;-70
2021/07/19 09:38:39;;;;;;;;;;;;;;;28.83;41.89;99291.59;5098110;28;19931;-70
2021/07/19 09:41:08;;;;;;;;;;;;;;;28.69;43.25;99291.91;5098017;28;19928;-72
2021/07/19 09:43:36;;;;;;;;;;;;;;;28.75;44.02;99294.00;5097942;28;19959;-71
2021/07/19 09:46:09;;;;;;;;;;;;;;;28.89;44.27;99290.28;5098093;28;20012;-70
2021/07/19 09:48:40;;;;;;;;;;;;;;;29.01;44.06;99284.81;5079803;28;19942;-69
2021/07/19 09:51:10;;;;;;;;;;;;;;;29.07;43.43;99289.59;5097776;28;20019;-72
2021/07/19 09:53:40;;;;;;;;;;;;;;;29.03;42.45;99285.50;5097767;28;20027;-70
2021/07/19 09:56:13;;;;;;;;;;;;;;;29.06;42.65;99293.16;5097741;28;19928;-69
2021/07/19 09:58:42;;;;;;;;;;;;;;;29.15;42.53;99284.50;5097822;28;19970;-70
2021/07/19 10:01:26;;;;;;;;;;;;;;;29.25;41.67;99281.16;5079676;28;19924;-69
2021/07/19 10:04:06;;;;;;;;;;;;;;;29.34;41.95;99286.47;5097935;28;19927;-70
2021/07/19 10:06:37;;;;;;;;;;;;;;;29.32;42.02;99287.56;5097671;28;19924;-69
2021/07/19 10:09:07;;;;;;;;;;;;;;;29.11;42.72;99279.63;5096998;28;19928;-69
2021/07/19 10:11:38;;;;;;;;;;;;;;;28.93;42.98;99284.63;5097848;28;20366;-70
2021/07/19 10:14:07;;;;;;;;;;;;;;;28.93;42.85;99286.41;5097722;28;20263;-69
2021/07/19 10:16:37;;;;;;;;;;;;;;;28.95;42.77;99295.00;5097250;28;19977;-71
2021/07/19 10:19:10;;;;;;;;;;;;;;;29.17;42.67;99277.34;5097352;28;19924;-74
2021/07/19 10:21:40;;;;;;;;;;;;;;;29.41;42.33;99276.28;5096847;28;20009;-71
2021/07/19 10:24:09;;;;;;;;;;;;;;;29.56;41.69;99269.72;5097999;28;19930;-72
2021/07/19 10:26:41;;;;;;;;;;;;;;;29.59;41.45;99266.81;5079236;28;19924;-71
2021/07/19 10:29:10;;;;;;;;;;;;;;;29.65;41.93;99268.91;5097227;28;19935;-72
2021/07/19 10:31:38;;;;;;;;;;;;;;;29.79;41.68;99273.88;5079032;28;20018;-71
2021/07/19 10:34:08;;;;;;;;;;;;;;;29.72;41.86;99259.53;5097083;28;19924;-70
2021/07/19 10:36:40;;;;;;;;;;;;;;;29.69;41.63;99271.16;5097290;28;20003;-72
2021/07/19 10:39:11;;;;;;;;;;;;;;;29.79;41.00;99258.06;5097297;28;19924;-71
2021/07/19 10:41:41;;;;;;;;;;;;;;;29.91;40.73;99250.91;5096935;28;19924;-71
2021/07/19 10:44:12;;;;;;;;;;;;;;;29.69;41.20;99257.16;5097126;28;20012;-71
2021/07/19 10:46:43;;;;;;;;;;;;;;;29.74;41.88;99247.06;5096946;28;19924;-72
2021/07/19 10:49:13;;;;;;;;;;;;;;;29.68;41.53;99248.41;5096147;28;19924;-68
2021/07/19 10:51:44;;;;;;;;;;;;;;;29.47;41.78;99255.53;5096982;28;20338;-71
2021/07/19 10:54:15;;;;;;;;;;;;;;;29.29;41.90;99251.84;5096813;28;20019;-70
2021/07/19 10:56:44;;;;;;;;;;;;;;;29.14;42.29;99251.31;5096602;28;20370;-71
2021/07/19 10:59:25;;;;;;;;;;;;;;;29.01;42.81;99258.53;5096397;28;19931;-69
2021/07/19 11:05:14;;;;;;;;;;;;;;;29.67;42.00;99245.94;5096527;28;19924;-70
2021/07/19 11:07:45;;;;;;;;;;;;;;;29.78;42.16;99244.06;5096451;28;19973;-73
2021/07/19 11:10:16;;;;;;;;;;;;;;;29.74;41.17;99245.28;5078381;28;19986;-71
2021/07/19 11:12:49;;;;;;;;;;;;;;;29.88;40.95;99243.25;5096860;28;19924;-71
2021/07/19 11:15:21;;;;;;;;;;;;;;;30.08;41.10;99243.22;5096415;28;19924;-71
2021/07/19 11:17:51;;;;;;;;;;;;;;;30.21;40.61;99241.16;5096289;28;19931;-71
2021/07/19 11:20:19;;;;;;;;;;;;;;;30.12;39.76;99230.59;5096199;28;19931;-71
2021/07/19 11:23:01;;;;;;;;;;;;;;;30.18;40.36;99223.00;5096142;28;20374;-72
2021/07/19 11:25:52;;;;;;;;;;;;;;;30.17;40.69;99221.31;5078171;28;19981;-71
2021/07/19 11:28:23;;;;;;;;;;;;;;;30.29;40.69;99228.13;5077938;28;19928;-71
2021/07/19 11:31:02;;;;;;;;;;;;;;;30.60;40.54;99235.94;5095708;28;19924;-73
2021/07/19 11:33:31;;;;;;;;;;;;;;;30.39;39.51;99223.75;5095906;28;19932;-70
2021/07/19 11:36:02;;;;;;;;;;;;;;;30.13;39.94;99219.94;5077623;28;19928;-71
2021/07/19 11:38:40;;;;;;;;;;;;;;;30.14;39.61;99223.41;5095503;28;19932;-70
2021/07/19 11:41:18;;;;;;;;;;;;;;;30.23;39.04;99215.53;5077732;28;19924;-72
2021/07/19 11:43:48;;;;;;;;;;;;;;;30.44;39.58;99221.53;5095637;28;19928;-71
2021/07/19 11:46:38;;;;;;;;;;;;;;;30.52;39.02;99212.13;5095716;28;19962;-70
2021/07/19 11:49:22;;;;;;;;;;;;;;;30.21;39.21;99220.06;5093936;28;19931;-69
2021/07/19 11:51:51;;;;;;;;;;;;;;;30.40;39.21;99217.50;5095608;28;19935;-71
2021/07/19 11:54:20;;;;;;;;;;;;;;;30.66;38.70;99202.00;5095361;28;20373;-71
2021/07/19 11:56:52;;;;;;;;;;;;;;;31.02;39.26;99213.63;5095074;28;19928;-71
2021/07/19 11:59:22;;;;;;;;;;;;;;;31.24;38.19;99205.41;5094757;28;19924;-71
2021/07/19 12:01:55;;;;;;;;;;;;;;;31.32;37.23;99208.13;5094816;28;19931;-70
2021/07/19 12:04:24;;;;;;;;;;;;;;;31.15;37.59;99211.50;5095098;28;19924;-71
2021/07/19 12:06:53;;;;;;;;;;;;;;;30.68;37.53;99215.00;5095057;28;19984;-72
2021/07/19 12:09:22;;;;;;;;;;;;;;;30.60;37.12;99199.06;5095165;28;20368;-70
2021/07/19 12:11:55;;;;;;;;;;;;;;;30.39;37.72;99202.69;5095169;28;19924;-72
2021/07/19 12:14:24;;;;;;;;;;;;;;;30.46;38.11;99190.63;5095105;28;20328;-72
2021/07/19 12:16:53;;;;;;;;;;;;;;;30.70;37.59;99184.06;5095101;28;20433;-72
2021/07/19 12:19:21;;;;;;;;;;;;;;;30.83;37.58;99184.63;5094817;28;20424;-71
2021/07/19 12:21:51;;;;;;;;;;;;;;;30.64;36.71;99184.66;5094850;28;19924;-71
2021/07/19 12:24:22;;;;;;;;;;;;;;;30.74;37.52;99185.47;5094892;28;19924;-72
2021/07/19 12:26:54;;;;;;;;;;;;;;;30.85;36.92;99177.41;5094901;28;19971;-71
2021/07/19 12:29:29;;;;;;;;;;;;;;;30.89;36.52;99168.25;5095013;28;19998;-72
2021/07/19 12:32:00;;;;;;;;;;;;;;;30.89;36.41;99178.81;5094715;28;19963;-72
2021/07/19 12:34:31;;;;;;;;;;;;;;;30.92;36.63;99162.72;5094410;28;19924;-70
2021/07/19 12:37:00;;;;;;;;;;;;;;;30.97;37.04;99177.16;5094631;28;20435;-71
2021/07/19 12:39:30;;;;;;;;;;;;;;;30.98;36.49;99164.75;5094356;28;20018;-72
2021/07/19 12:41:59;;;;;;;;;;;;;;;30.76;35.61;99162.44;5094552;28;19970;-71
2021/07/19 12:44:31;;;;;;;;;;;;;;;30.79;36.24;99167.41;5094337;28;20036;-71
2021/07/19 12:47:01;;;;;;;;;;;;;;;30.77;36.71;99167.56;5094334;28;20031;-72
2021/07/19 12:49:31;;;;;;;;;;;;;;;30.86;36.06;99157.97;5094302;28;19924;-70
2021/07/19 12:52:02;;;;;;;;;;;;;;;30.62;35.75;99170.78;5094167;28;19947;-70
2021/07/19 12:54:55;;;;;;;;;;;;;;;30.63;35.43;99167.16;5094157;28;19930;-70
2021/07/19 12:57:24;;;;;;;;;;;;;;;30.69;35.78;99166.63;5094101;28;19924;-70
2021/07/19 12:59:55;;;;;;;;;;;;;;;30.77;35.68;99158.81;5094101;28;19993;-72
2021/07/19 13:02:25;;;;;;;;;;;;;;;30.87;35.73;99164.91;5094155;28;19924;-69
2021/07/19 13:04:54;;;;;;;;;;;;;;;30.89;35.30;99157.72;5094071;28;20007;-71
2021/07/19 13:07:27;;;;;;;;;;;;;;;31.00;35.73;99155.75;5094022;28;20015;-72
2021/07/19 13:09:57;;;;;;;;;;;;;;;31.08;36.16;99160.31;5093974;28;20312;-72
2021/07/19 13:12:26;;;;;;;;;;;;;;;31.02;35.50;99155.63;5093659;28;20330;-70